Time;durP1;ratioP1;P1;durP2;ratioP2;P2;SDS_P1;SDS_P2;PMS_P1;PMS_P2;Temp;Humidity;BMP_temperature;BMP_pressure;BME280_temperature;BME280_humidity;BME280_pressure;Samples;Min_cycle;Max_cycle;Signal;HPM_P1;HPM_P2
2020/12/11 00:02:13;;;;;;;37.92;16.25;;;;;;;1.02;89.84;99257.28;5038614;28;20037;-53
2020/12/11 00:04:40;;;;;;;47.50;18.70;;;;;;;1.07;89.88;99255.06;5036956;28;20054;-56
2020/12/11 00:07:08;;;;;;;39.97;17.58;;;;;;;1.11;89.69;99255.63;5037547;28;20345;-52
2020/12/11 00:09:35;;;;;;;47.03;19.83;;;;;;;1.15;89.20;99249.13;5037520;28;20048;-52
2020/12/11 00:12:03;;;;;;;44.75;20.23;;;;;;;1.14;88.98;99244.81;5043032;28;20045;-53
2020/12/11 00:14:30;;;;;;;35.83;18.25;;;;;;;1.16;89.22;99237.59;5045047;28;20056;-53
2020/12/11 00:16:56;;;;;;;43.17;18.27;;;;;;;1.19;89.13;99226.81;5036225;28;20049;-52
2020/12/11 00:19:24;;;;;;;37.80;17.27;;;;;;;1.23;88.86;99222.91;5044303;28;20127;-56
2020/12/11 00:21:51;;;;;;;34.95;16.15;;;;;;;1.20;88.59;99203.03;5034363;28;20052;-55
2020/12/11 00:24:20;;;;;;;37.05;16.52;;;;;;;1.26;88.37;99212.13;5041405;28;20194;-53
2020/12/11 00:26:47;;;;;;;33.40;15.52;;;;;;;1.19;88.19;99195.25;5035279;28;20056;-51
2020/12/11 00:29:13;;;;;;;32.50;14.98;;;;;;;1.17;87.70;99192.75;5042658;28;20388;-56
2020/12/11 00:31:40;;;;;;;30.33;13.73;;;;;;;1.05;88.37;99182.56;5043286;28;20053;-52
2020/12/11 00:34:07;;;;;;;32.90;15.40;;;;;;;0.98;88.16;99177.88;5039218;28;20051;-56
2020/12/11 00:36:34;;;;;;;29.98;14.23;;;;;;;0.98;88.73;99174.41;5038746;28;20359;-56
2020/12/11 00:39:01;;;;;;;34.13;16.27;;;;;;;0.95;88.66;99167.63;5039495;28;20041;-53
2020/12/11 00:41:29;;;;;;;35.65;15.95;;;;;;;0.95;88.73;99157.13;5040152;28;20049;-54
2020/12/11 00:43:56;;;;;;;37.40;16.10;;;;;;;1.05;88.91;99156.25;5040843;28;20048;-52
2020/12/11 00:46:24;;;;;;;39.92;17.50;;;;;;;1.13;88.71;99153.75;5038630;28;20065;-53
2020/12/11 00:48:51;;;;;;;46.72;18.73;;;;;;;1.18;88.30;99152.34;5037570;28;20056;-54
2020/12/11 00:51:20;;;;;;;34.45;17.02;;;;;;;1.18;88.42;99156.78;5039631;28;20403;-54
2020/12/11 00:53:48;;;;;;;37.33;15.82;;;;;;;1.28;88.46;99147.06;5038736;28;20041;-52
2020/12/11 00:56:15;;;;;;;40.92;16.10;;;;;;;1.25;87.79;99157.03;5030327;28;20051;-53
2020/12/11 00:58:43;;;;;;;30.50;14.35;;;;;;;1.32;87.88;99144.97;5022644;28;20988;-52
2020/12/11 01:01:10;;;;;;;31.98;14.27;;;;;;;1.32;87.74;99134.47;5033415;28;20045;-52
2020/12/11 01:03:37;;;;;;;30.95;13.27;;;;;;;1.23;87.81;99138.75;5042625;28;20076;-54
2020/12/11 01:06:04;;;;;;;25.60;13.48;;;;;;;1.27;87.91;99134.06;5040997;28;20120;-55
2020/12/11 01:08:31;;;;;;;30.35;15.10;;;;;;;1.20;87.89;99120.66;5039708;28;20061;-53
2020/12/11 01:10:58;;;;;;;27.73;13.57;;;;;;;1.24;88.21;99132.53;5041128;28;20400;-52
2020/12/11 01:13:25;;;;;;;33.70;14.60;;;;;;;1.17;88.43;99127.00;5043625;28;20049;-55
2020/12/11 01:15:53;;;;;;;31.10;15.05;;;;;;;1.19;88.07;99121.59;5036890;28;20116;-53
2020/12/11 01:18:22;;;;;;;33.92;15.43;;;;;;;1.24;87.90;99121.19;5042954;28;20385;-55
2020/12/11 01:20:49;;;;;;;32.47;15.52;;;;;;;1.21;88.28;99111.78;5041804;28;20060;-54
2020/12/11 01:23:16;;;;;;;32.67;14.18;;;;;;;1.28;88.21;99104.16;5037585;28;20126;-53
2020/12/11 01:25:43;;;;;;;31.33;14.57;;;;;;;1.28;87.99;99112.06;5042359;28;20345;-53
2020/12/11 01:28:10;;;;;;;30.52;13.40;;;;;;;1.28;88.31;99104.97;5043057;28;20049;-55
2020/12/11 01:30:37;;;;;;;29.80;13.88;;;;;;;1.36;88.49;99104.25;5042952;28;20448;-54
2020/12/11 01:33:05;;;;;;;28.80;13.77;;;;;;;1.25;88.75;99110.53;5040342;28;20151;-55
2020/12/11 01:35:31;;;;;;;26.98;12.60;;;;;;;1.28;88.12;99112.06;5038887;28;20056;-53
2020/12/11 01:37:58;;;;;;;24.88;12.65;;;;;;;1.36;88.01;99097.19;5035617;28;20057;-53
2020/12/11 01:40:25;;;;;;;23.50;11.52;;;;;;;1.29;88.28;99100.53;5041312;28;20060;-51
2020/12/11 01:42:52;;;;;;;24.17;12.98;;;;;;;1.28;89.01;99099.72;5040039;28;20044;-52
2020/12/11 01:45:19;;;;;;;24.33;11.98;;;;;;;1.27;89.26;99084.91;5039594;28;20037;-52
2020/12/11 01:47:47;;;;;;;24.55;11.52;;;;;;;1.19;90.13;99084.78;5040392;28;20053;-52
2020/12/11 01:50:19;;;;;;;29.13;12.40;;;;;;;1.16;90.29;99079.84;5039580;28;20049;-54
2020/12/11 01:52:47;;;;;;;24.58;12.00;;;;;;;1.13;90.64;99074.88;5040621;28;20445;-52
2020/12/11 01:55:14;;;;;;;21.52;10.65;;;;;;;1.07;91.33;99070.19;5039587;28;20053;-57
2020/12/11 01:57:48;;;;;;;21.52;10.60;;;;;;;1.04;91.66;99063.44;5034365;28;20033;-54
2020/12/11 02:00:19;;;;;;;23.85;10.52;;;;;;;1.04;91.89;99060.78;5038988;28;20341;-57
2020/12/11 02:02:47;;;;;;;22.23;10.70;;;;;;;0.96;92.26;99056.25;5041787;28;20045;-54
2020/12/11 02:05:15;;;;;;;25.15;10.57;;;;;;;1.00;92.90;99048.91;5038133;28;20045;-50
2020/12/11 02:07:42;;;;;;;25.58;11.95;;;;;;;0.98;93.69;99050.88;5033893;28;20048;-59
2020/12/11 02:10:10;;;;;;;21.30;11.05;;;;;;;0.93;93.84;99053.91;5036254;28;20041;-60
2020/12/11 02:12:37;;;;;;;25.58;10.88;;;;;;;0.96;94.25;99031.75;5040283;28;20052;-60
2020/12/11 02:15:06;;;;;;;21.25;10.65;;;;;;;0.95;94.38;99038.00;5042478;28;20041;-52
2020/12/11 02:17:33;;;;;;;22.23;10.65;;;;;;;0.91;94.85;99029.59;5037617;28;20053;-55
2020/12/11 02:20:00;;;;;;;22.90;11.25;;;;;;;0.92;95.42;99035.66;5034544;28;20077;-60
2020/12/11 02:22:27;;;;;;;24.20;11.52;;;;;;;0.90;95.86;99014.78;5039250;28;20049;-58
2020/12/11 02:24:54;;;;;;;18.80;10.63;;;;;;;0.87;96.26;99007.19;5037425;28;20056;-58
2020/12/11 02:27:22;;;;;;;23.10;11.85;;;;;;;0.78;96.72;99005.41;5043194;28;20049;-58
2020/12/11 02:29:52;;;;;;;24.92;12.35;;;;;;;0.80;96.82;98998.22;5043224;28;20045;-57
2020/12/11 02:32:22;;;;;;;28.10;12.23;;;;;;;0.77;97.44;98991.44;5043077;28;20056;-57
2020/12/11 02:34:50;;;;;;;28.67;12.02;;;;;;;0.80;97.24;98991.16;5041397;28;20048;-57
2020/12/11 02:37:16;;;;;;;23.70;12.65;;;;;;;0.76;97.90;98987.16;5039706;28;20053;-57
2020/12/11 02:39:45;;;;;;;23.42;10.90;;;;;;;0.75;98.09;98979.44;5039487;28;20067;-56
2020/12/11 02:42:12;;;;;;;28.23;14.00;;;;;;;0.74;98.25;98970.72;5042403;28;20333;-57
2020/12/11 02:44:39;;;;;;;26.20;13.68;;;;;;;0.75;98.64;98958.41;5045457;28;20056;-55
2020/12/11 02:47:06;;;;;;;28.55;12.45;;;;;;;0.72;98.42;98962.16;5041703;28;20056;-57
2020/12/11 02:49:33;;;;;;;24.15;12.93;;;;;;;0.68;98.90;98951.13;5045377;28;20480;-57
2020/12/11 02:52:00;;;;;;;28.80;13.23;;;;;;;0.73;98.92;98957.75;5040288;28;20034;-56
2020/12/11 02:54:27;;;;;;;30.30;12.25;;;;;;;0.71;99.31;98943.91;5042269;28;20116;-56
2020/12/11 02:56:54;;;;;;;28.75;14.73;;;;;;;0.78;98.99;98943.19;5043377;28;20037;-56
2020/12/11 02:59:21;;;;;;;33.90;15.30;;;;;;;0.77;99.28;98943.34;5044701;28;20479;-56
2020/12/11 03:01:48;;;;;;;30.33;14.00;;;;;;;0.84;99.52;98944.41;5041902;28;20045;-56
2020/12/11 03:04:15;;;;;;;33.83;14.30;;;;;;;0.83;99.41;98934.84;5042480;28;20091;-55
2020/12/11 03:06:45;;;;;;;34.72;15.43;;;;;;;0.81;99.38;98942.06;5040348;28;20064;-57
2020/12/11 03:09:11;;;;;;;33.75;15.05;;;;;;;0.83;99.58;98932.22;5042992;28;20037;-56
2020/12/11 03:11:38;;;;;;;29.65;14.88;;;;;;;0.92;99.44;98933.16;5042073;28;20048;-57
2020/12/11 03:14:06;;;;;;;30.55;13.95;;;;;;;0.93;99.83;98930.38;5040544;28;20053;-56
2020/12/11 03:16:33;;;;;;;32.38;15.13;;;;;;;0.86;99.99;98921.41;5043216;28;20033;-57
2020/12/11 03:19:00;;;;;;;30.02;13.63;;;;;;;0.90;100.00;98914.91;5041296;28;20459;-57
2020/12/11 03:21:27;;;;;;;29.45;13.88;;;;;;;0.92;99.77;98899.81;5045317;28;20044;-57
2020/12/11 03:23:54;;;;;;;27.90;13.25;;;;;;;0.90;100.00;98893.88;5039667;28;20393;-58
2020/12/11 03:26:21;;;;;;;28.90;13.25;;;;;;;0.94;100.00;98886.53;5041247;28;20052;-58
2020/12/11 03:28:48;;;;;;;30.33;12.30;;;;;;;0.99;100.00;98889.53;5045342;28;20063;-56
2020/12/11 03:31:17;;;;;;;22.88;11.50;;;;;;;0.98;100.00;98878.19;5040660;28;20065;-57
2020/12/11 03:33:44;;;;;;;27.15;13.20;;;;;;;1.00;100.00;98870.16;5037684;28;20047;-55
2020/12/11 03:36:10;;;;;;;24.35;10.98;;;;;;;0.94;100.00;98858.44;5035702;28;20268;-55
2020/12/11 03:38:37;;;;;;;26.10;11.80;;;;;;;0.93;100.00;98851.50;5043607;28;20049;-56
2020/12/11 03:41:04;;;;;;;22.63;12.00;;;;;;;0.96;100.00;98845.94;5042755;28;20043;-55
2020/12/11 03:43:33;;;;;;;31.10;13.07;;;;;;;0.95;100.00;98839.06;5044412;28;20080;-56
2020/12/11 03:46:01;;;;;;;23.05;11.75;;;;;;;0.94;100.00;98829.50;5040986;28;20037;-56
2020/12/11 03:48:29;;;;;;;30.27;13.23;;;;;;;1.01;100.00;98827.94;5046763;28;20386;-55
2020/12/11 03:50:56;;;;;;;27.63;13.20;;;;;;;1.00;100.00;98815.75;5042614;28;20061;-57
2020/12/11 03:53:22;;;;;;;28.05;12.75;;;;;;;1.10;100.00;98817.50;5038703;28;20052;-54
2020/12/11 03:55:51;;;;;;;31.15;13.35;;;;;;;1.10;100.00;98804.34;5043612;28;20048;-59
2020/12/11 03:58:19;;;;;;;25.85;13.85;;;;;;;1.09;100.00;98794.81;5037879;28;20048;-59
2020/12/11 04:00:46;;;;;;;28.23;13.80;;;;;;;1.14;100.00;98797.81;5042789;28;20340;-59
2020/12/11 04:03:13;;;;;;;32.70;14.80;;;;;;;1.15;100.00;98794.22;5042639;28;20043;-59
2020/12/11 04:05:40;;;;;;;27.02;14.95;;;;;;;1.20;100.00;98792.78;5037632;28;20318;-59
2020/12/11 04:08:07;;;;;;;32.67;13.63;;;;;;;1.19;100.00;98783.25;5039086;28;20053;-58
2020/12/11 04:10:34;;;;;;;30.83;13.40;;;;;;;1.24;100.00;98776.69;5039202;28;20041;-58
2020/12/11 04:13:01;;;;;;;26.60;12.23;;;;;;;1.28;100.00;98776.22;5040938;28;20435;-56
2020/12/11 04:15:28;;;;;;;29.52;12.57;;;;;;;1.28;100.00;98768.34;5040031;28;20424;-56
2020/12/11 04:17:55;;;;;;;28.58;14.07;;;;;;;1.29;100.00;98759.47;5039947;28;20037;-58
2020/12/11 04:20:22;;;;;;;31.42;12.75;;;;;;;1.37;100.00;98751.63;5040810;28;20059;-58
2020/12/11 04:22:50;;;;;;;26.48;12.00;;;;;;;1.40;100.00;98736.53;5040475;28;20049;-57
2020/12/11 04:25:16;;;;;;;27.25;11.95;;;;;;;1.40;100.00;98720.75;5042565;28;20384;-58
2020/12/11 04:27:44;;;;;;;25.33;12.18;;;;;;;1.46;100.00;98722.75;5038911;28;20036;-58
2020/12/11 04:30:11;;;;;;;28.10;13.55;;;;;;;1.46;100.00;98735.91;5043328;28;20044;-58
2020/12/11 04:32:38;;;;;;;28.50;12.68;;;;;;;1.53;100.00;98729.03;5039905;28;20145;-58
2020/12/11 04:35:05;;;;;;;29.15;13.23;;;;;;;1.54;100.00;98726.25;5040899;28;20052;-59
2020/12/11 04:37:32;;;;;;;31.45;14.60;;;;;;;1.58;100.00;98716.25;5036053;28;20053;-59
2020/12/11 04:40:01;;;;;;;28.65;14.82;;;;;;;1.63;100.00;98718.41;5041990;28;20392;-59
2020/12/11 04:42:32;;;;;;;31.42;14.48;;;;;;;1.62;100.00;98719.41;5036794;28;20104;-59
2020/12/11 04:44:59;;;;;;;34.00;14.88;;;;;;;1.63;100.00;98719.25;5040301;28;20049;-59
2020/12/11 04:47:26;;;;;;;36.58;15.90;;;;;;;1.69;100.00;98713.34;5038958;28;20048;-60
2020/12/11 04:49:53;;;;;;;41.10;16.52;;;;;;;1.69;100.00;98723.06;5040121;28;20382;-60
2020/12/11 04:52:22;;;;;;;36.53;16.35;;;;;;;1.74;100.00;98714.69;5042725;28;20053;-59
2020/12/11 04:54:50;;;;;;;36.20;16.25;;;;;;;1.75;100.00;98703.19;5041196;28;20041;-59
2020/12/11 04:57:22;;;;;;;35.72;15.38;;;;;;;1.79;100.00;98700.06;5039865;28;20041;-57
2020/12/11 04:59:50;;;;;;;41.33;16.92;;;;;;;1.80;100.00;98691.19;5038385;28;20068;-54
2020/12/11 05:02:17;;;;;;;36.25;14.82;;;;;;;1.86;100.00;98692.38;5042163;28;20099;-52
2020/12/11 05:04:44;;;;;;;35.53;15.65;;;;;;;1.91;100.00;98690.06;5042676;28;20340;-56
2020/12/11 05:07:12;;;;;;;36.63;17.35;;;;;;;1.89;100.00;98690.22;5039638;28;20342;-55
2020/12/11 05:09:40;;;;;;;32.63;16.60;;;;;;;1.91;100.00;98686.63;5041244;28;20041;-53
2020/12/11 05:12:14;;;;;;;34.22;15.80;;;;;;;1.98;100.00;98691.06;5043192;28;20036;-56
2020/12/11 05:14:42;;;;;;;31.45;15.15;;;;;;;1.97;100.00;98684.19;5040329;28;20053;-53
2020/12/11 05:17:09;;;;;;;32.25;15.10;;;;;;;2.01;100.00;98680.25;5037324;28;20352;-57
2020/12/11 05:19:49;;;;;;;35.35;14.65;;;;;;;2.05;100.00;98678.09;5042515;28;20052;-54
2020/12/11 05:22:18;;;;;;;33.88;16.58;;;;;;;2.06;100.00;98677.94;5040123;28;20041;-55
2020/12/11 05:24:49;;;;;;;32.95;14.48;;;;;;;2.07;100.00;98673.50;5038587;28;20037;-53
2020/12/11 05:27:40;;;;;;;35.78;15.43;;;;;;;2.08;100.00;98677.78;5039642;28;20044;-51
2020/12/11 05:30:22;;;;;;;33.65;15.23;;;;;;;2.06;100.00;98677.94;5020017;28;20388;-51
2020/12/11 05:32:51;;;;;;;33.55;13.90;;;;;;;2.05;100.00;98676.28;5040866;28;20456;-51
2020/12/11 05:35:29;;;;;;;33.70;14.50;;;;;;;2.11;100.00;98666.09;5042568;28;20044;-53
2020/12/11 05:37:58;;;;;;;35.95;13.77;;;;;;;2.15;100.00;98664.78;5040695;28;20064;-58
2020/12/11 05:40:30;;;;;;;23.92;11.95;;;;;;;2.10;100.00;98656.53;5040120;28;20048;-59
2020/12/11 05:43:08;;;;;;;21.40;10.27;;;;;;;2.08;100.00;98656.69;5041780;28;20055;-58
2020/12/11 05:45:37;;;;;;;24.33;11.15;;;;;;;2.10;100.00;98651.28;5020271;28;20053;-56
2020/12/11 05:48:06;;;;;;;23.10;9.80;;;;;;;2.12;100.00;98649.31;5047713;28;20276;-58
2020/12/11 05:50:33;;;;;;;21.98;11.00;;;;;;;2.07;100.00;98639.28;5038672;28;20061;-58
2020/12/11 05:53:00;;;;;;;22.48;10.07;;;;;;;2.11;100.00;98645.84;5039195;28;20459;-53
2020/12/11 05:55:27;;;;;;;20.15;10.43;;;;;;;2.11;100.00;98640.56;5039917;28;20056;-54
2020/12/11 05:57:56;;;;;;;16.48;9.07;;;;;;;2.13;100.00;98640.44;5043766;28;20200;-54
2020/12/11 06:00:24;;;;;;;21.30;9.93;;;;;;;2.13;100.00;98643.88;5041761;28;20052;-54
2020/12/11 06:02:52;;;;;;;19.83;9.75;;;;;;;2.18;100.00;98630.22;5044255;28;20626;-55
2020/12/11 06:05:21;;;;;;;18.20;9.45;;;;;;;2.17;100.00;98625.94;5044667;28;20044;-56
2020/12/11 06:07:49;;;;;;;17.08;9.15;;;;;;;2.17;100.00;98621.50;5044929;28;20503;-58
2020/12/11 06:10:18;;;;;;;17.50;8.55;;;;;;;2.22;100.00;98613.13;5043484;28;20441;-58
2020/12/11 06:12:44;;;;;;;14.32;8.20;;;;;;;2.22;100.00;98615.75;5043381;28;20048;-58
2020/12/11 06:15:18;;;;;;;14.32;8.20;;;;;;;2.26;100.00;98608.34;5042811;28;20038;-57
2020/12/11 06:17:49;;;;;;;16.05;8.50;;;;;;;2.25;100.00;98602.25;5042523;28;20040;-58
2020/12/11 06:20:18;;;;;;;19.52;9.02;;;;;;;2.28;100.00;98596.66;5043019;28;20041;-57
2020/12/11 06:22:45;;;;;;;17.63;8.27;;;;;;;2.26;100.00;98597.81;5039674;28;20345;-58
2020/12/11 06:25:26;;;;;;;15.30;7.45;;;;;;;2.32;100.00;98591.88;5040661;28;22490;-58
2020/12/11 06:27:53;;;;;;;16.77;7.05;;;;;;;2.32;100.00;98600.59;5040235;28;20049;-58
2020/12/11 06:30:28;;;;;;;13.65;8.02;;;;;;;2.33;100.00;98586.44;5044193;28;20048;-58
2020/12/11 06:32:55;;;;;;;12.77;6.73;;;;;;;2.31;100.00;98575.28;5040168;28;20468;-58
2020/12/11 06:35:23;;;;;;;15.73;7.15;;;;;;;2.33;100.00;98578.56;5041216;28;20063;-59
2020/12/11 06:37:51;;;;;;;12.10;6.85;;;;;;;2.43;100.00;98577.56;5043193;28;20063;-58
2020/12/11 06:40:18;;;;;;;10.55;6.07;;;;;;;2.44;100.00;98568.66;5038741;28;20306;-59
2020/12/11 06:42:45;;;;;;;11.43;6.70;;;;;;;2.40;100.00;98558.47;5039621;28;20337;-59
2020/12/11 06:45:20;;;;;;;13.52;7.35;;;;;;;2.41;100.00;98564.56;5044873;28;20267;-59
2020/12/11 06:47:52;;;;;;;15.13;7.13;;;;;;;2.48;100.00;98555.00;5039392;28;20457;-59
2020/12/11 06:50:21;;;;;;;14.48;7.38;;;;;;;2.47;100.00;98557.81;5041217;28;20260;-59
2020/12/11 06:52:49;;;;;;;12.10;5.93;;;;;;;2.48;100.00;98543.63;5044202;28;20420;-59
2020/12/11 06:55:16;;;;;;;13.77;6.43;;;;;;;2.51;100.00;98551.19;5035485;28;20053;-59
2020/12/11 06:57:45;;;;;;;13.98;6.53;;;;;;;2.47;100.00;98553.34;5041559;28;20034;-59
2020/12/11 07:00:39;;;;;;;13.60;6.93;;;;;;;2.50;100.00;98542.47;5042984;28;20044;-59
2020/12/11 07:03:20;;;;;;;11.15;7.38;;;;;;;2.50;100.00;98546.94;5044769;28;20053;-59
2020/12/11 07:06:06;;;;;;;14.25;7.35;;;;;;;2.50;100.00;98549.56;5037496;28;20053;-59
2020/12/11 07:08:34;;;;;;;12.13;6.47;;;;;;;2.47;100.00;98544.63;5035467;28;20071;-58
2020/12/11 07:11:12;;;;;;;14.25;7.68;;;;;;;2.49;100.00;98545.28;5040965;28;20064;-58
2020/12/11 07:13:49;;;;;;;14.85;7.07;;;;;;;2.51;100.00;98543.28;5039656;28;20048;-58
2020/12/11 07:16:17;;;;;;;13.93;7.40;;;;;;;2.54;100.00;98546.44;5043605;28;20060;-57
2020/12/11 07:18:45;;;;;;;15.48;8.10;;;;;;;2.52;100.00;98542.31;5018575;28;679493;-58
2020/12/11 07:21:12;;;;;;;17.00;7.72;;;;;;;2.55;100.00;98534.06;5047312;28;20055;-58
2020/12/11 07:23:40;;;;;;;19.52;7.63;;;;;;;2.57;100.00;98540.81;5041941;28;20063;-58
2020/12/11 07:26:07;;;;;;;21.98;9.57;;;;;;;2.50;100.00;98536.41;5041411;28;20325;-58
2020/12/11 07:28:35;;;;;;;16.30;8.65;;;;;;;2.55;100.00;98528.78;5046867;28;20052;-58
2020/12/11 07:31:02;;;;;;;18.92;8.52;;;;;;;2.60;100.00;98520.41;5042731;28;20045;-58
2020/12/11 07:33:30;;;;;;;22.85;10.57;;;;;;;2.57;100.00;98525.00;5045308;28;20046;-59
2020/12/11 07:36:00;;;;;;;20.08;9.45;;;;;;;2.63;100.00;98520.88;5040765;28;20048;-59
2020/12/11 07:38:27;;;;;;;20.35;10.40;;;;;;;2.63;100.00;98517.44;5037994;28;20049;-59
2020/12/11 07:40:55;;;;;;;30.33;10.13;;;;;;;2.66;100.00;98517.09;5042655;28;20050;-58
2020/12/11 07:43:23;;;;;;;31.00;14.32;;;;;;;2.64;100.00;98506.72;5042858;28;20052;-58
2020/12/11 07:45:53;;;;;;;18.85;8.57;;;;;;;2.63;100.00;98515.59;5042278;28;20045;-58
2020/12/11 07:48:20;;;;;;;22.15;10.27;;;;;;;2.66;100.00;98499.44;5043720;28;20445;-57
2020/12/11 07:50:48;;;;;;;22.63;9.55;;;;;;;2.66;100.00;98501.28;5042648;28;20340;-58
2020/12/11 07:53:15;;;;;;;17.27;8.75;;;;;;;2.73;100.00;98495.16;5039030;28;20049;-57
2020/12/11 07:55:47;;;;;;;20.67;8.43;;;;;;;2.72;100.00;98498.78;5044021;28;20136;-59
2020/12/11 07:58:15;;;;;;;18.15;8.10;;;;;;;2.81;100.00;98485.56;5042533;28;20456;-59
2020/12/11 08:00:42;;;;;;;15.10;7.50;;;;;;;2.83;100.00;98488.88;5039928;28;20037;-57
2020/12/11 08:05:54;;;;;;;18.90;8.60;;;;;;;2.86;100.00;98488.53;5078683;23;20055;-63
2020/12/11 08:08:26;;;;;;;14.18;8.43;;;;;;;2.87;100.00;98485.72;4955887;28;20109;-63
2020/12/11 08:10:53;;;;;;;17.35;7.22;;;;;;;2.90;100.00;98474.81;4966468;28;20441;-62
2020/12/11 08:13:23;;;;;;;14.82;6.50;;;;;;;2.97;100.00;98484.72;4968035;28;20046;-63
2020/12/11 08:16:00;;;;;;;16.35;7.30;;;;;;;2.98;100.00;98481.06;4967262;28;20456;-63
2020/12/11 08:18:29;;;;;;;11.82;5.75;;;;;;;2.97;100.00;98480.25;4969641;28;20378;-64
2020/12/11 08:20:57;;;;;;;13.07;6.88;;;;;;;2.97;100.00;98474.16;4970205;28;20053;-64
2020/12/11 08:23:39;;;;;;;14.23;6.57;;;;;;;3.02;100.00;98477.94;4965835;28;20413;-63
2020/12/11 08:26:15;;;;;;;11.55;5.43;;;;;;;3.10;100.00;98471.78;4964678;28;20050;-64
2020/12/11 08:28:44;;;;;;;9.98;5.55;;;;;;;3.06;100.00;98473.13;4968148;28;20055;-63
2020/12/11 08:31:19;;;;;;;12.52;6.00;;;;;;;3.12;100.00;98471.59;4966916;28;20094;-64
2020/12/11 08:33:47;;;;;;;10.50;5.63;;;;;;;3.15;100.00;98472.09;4965754;28;20109;-63
2020/12/11 08:36:22;;;;;;;8.88;4.68;;;;;;;3.20;100.00;98453.91;4965231;28;20039;-63
2020/12/11 08:39:13;;;;;;;10.75;4.72;;;;;;;3.17;100.00;98470.09;4965282;28;20039;-63
2020/12/11 08:41:45;;;;;;;7.10;4.53;;;;;;;3.21;100.00;98474.03;4946739;28;20135;-64
2020/12/11 08:44:23;;;;;;;9.05;5.10;;;;;;;3.26;100.00;98466.44;4964245;28;20058;-64
2020/12/11 08:49:44;;;;;;;8.35;4.32;;;;;;;3.28;100.00;98459.16;4963755;28;20061;-64
2020/12/11 08:52:11;;;;;;;5.93;4.13;;;;;;;3.32;100.00;98464.91;4965559;28;20050;-65
2020/12/11 08:54:38;;;;;;;9.88;5.43;;;;;;;3.33;100.00;98468.38;4965946;28;20098;-64
2020/12/11 08:57:05;;;;;;;7.07;3.67;;;;;;;3.38;100.00;98461.56;4963788;28;20058;-64
2020/12/11 08:59:33;;;;;;;8.05;4.32;;;;;;;3.41;100.00;98461.22;4967349;28;20045;-63
2020/12/11 09:02:01;;;;;;;4.88;3.40;;;;;;;3.48;100.00;98457.91;4966446;28;20049;-64
2020/12/11 09:04:28;;;;;;;5.43;3.58;;;;;;;3.51;100.00;98449.63;4967700;28;20031;-64
2020/12/11 09:06:56;;;;;;;5.75;3.70;;;;;;;3.57;100.00;98451.56;4963918;28;20069;-63
2020/12/11 09:09:23;;;;;;;5.60;3.20;;;;;;;3.59;100.00;98444.28;4966106;28;20047;-64
2020/12/11 09:11:50;;;;;;;5.50;3.35;;;;;;;3.67;100.00;98444.25;4967115;28;20050;-61
2020/12/11 09:14:17;;;;;;;5.68;3.35;;;;;;;3.67;100.00;98438.97;4967169;28;20359;-64
2020/12/11 09:16:45;;;;;;;7.32;3.53;;;;;;;3.69;100.00;98439.59;4967077;28;20039;-63
2020/12/11 09:19:14;;;;;;;4.30;2.92;;;;;;;3.66;100.00;98432.03;4967039;28;20054;-64
2020/12/11 09:21:41;;;;;;;3.97;2.70;;;;;;;3.73;100.00;98427.69;4968468;28;20046;-64
2020/12/11 09:24:10;;;;;;;5.97;3.25;;;;;;;3.74;100.00;98428.50;4964649;28;20443;-64
2020/12/11 09:26:36;;;;;;;5.40;2.78;;;;;;;3.77;100.00;98423.69;4965826;28;20346;-64
2020/12/11 09:29:10;;;;;;;5.72;3.13;;;;;;;3.81;100.00;98415.41;4967244;28;20419;-64
2020/12/11 09:31:38;;;;;;;4.30;2.35;;;;;;;3.77;100.00;98415.78;4966250;28;20062;-64
2020/12/11 09:34:06;;;;;;;4.25;2.65;;;;;;;3.85;100.00;98416.69;4963983;28;20062;-65
2020/12/11 09:36:33;;;;;;;6.80;4.07;;;;;;;3.81;100.00;98407.50;4962388;28;20048;-64
2020/12/11 09:39:00;;;;;;;7.88;3.25;;;;;;;3.78;100.00;98414.78;4964433;28;20069;-64
2020/12/11 09:41:30;;;;;;;7.47;4.38;;;;;;;3.85;100.00;98411.41;4965307;28;20386;-64
2020/12/11 09:44:39;;;;;;;9.65;5.80;;;;;;;3.88;100.00;98414.50;4965228;28;20050;-64
2020/12/11 09:47:33;;;;;;;5.10;2.90;;;;;;;3.85;100.00;98414.06;4964155;28;20042;-64
2020/12/11 09:50:12;;;;;;;5.13;2.97;;;;;;;3.87;100.00;98415.53;4965716;28;20062;-64
2020/12/11 09:52:50;;;;;;;5.93;2.97;;;;;;;3.88;100.00;98413.69;4965416;28;20046;-61
2020/12/11 09:55:17;;;;;;;6.35;3.03;;;;;;;3.94;100.00;98407.69;4965676;28;20046;-62
2020/12/11 09:57:44;;;;;;;5.00;3.25;;;;;;;3.99;100.00;98410.63;4964040;28;20046;-62
2020/12/11 10:00:11;;;;;;;4.82;3.13;;;;;;;3.99;100.00;98410.63;4968464;28;20488;-62
2020/12/11 10:02:52;;;;;;;6.50;3.30;;;;;;;4.09;100.00;98405.09;4966107;28;20054;-63
2020/12/11 10:05:20;;;;;;;8.10;3.30;;;;;;;4.14;100.00;98410.66;4966776;28;20362;-61
2020/12/11 10:07:46;;;;;;;8.00;3.70;;;;;;;4.22;100.00;98391.25;4963912;28;20067;-62
2020/12/11 10:10:14;;;;;;;7.30;3.50;;;;;;;4.27;100.00;98402.09;4966116;28;20058;-62
2020/12/11 10:12:41;;;;;;;7.38;3.80;;;;;;;4.27;100.00;98395.00;4964999;28;20420;-61
2020/12/11 10:15:09;;;;;;;9.02;4.80;;;;;;;4.26;100.00;98388.06;4969256;28;20042;-62
2020/12/11 10:17:36;;;;;;;21.95;5.78;;;;;;;4.33;100.00;98379.44;4963336;28;20070;-62
2020/12/11 10:20:03;;;;;;;7.63;3.47;;;;;;;4.34;100.00;98376.59;4962336;28;20047;-63
2020/12/11 10:22:32;;;;;;;9.82;4.35;;;;;;;4.34;100.00;98378.41;4966724;28;20046;-62
2020/12/11 10:25:01;;;;;;;9.30;4.53;;;;;;;4.37;100.00;98365.66;4965949;28;20047;-63
2020/12/11 10:27:27;;;;;;;9.52;4.28;;;;;;;4.42;100.00;98378.31;4963071;28;20047;-63
2020/12/11 10:29:59;;;;;;;8.30;3.83;;;;;;;4.43;100.00;98364.91;4963254;28;20051;-62
2020/12/11 10:32:26;;;;;;;5.65;2.97;;;;;;;4.37;100.00;98360.38;4963543;28;20070;-61
2020/12/11 10:34:53;;;;;;;8.27;4.45;;;;;;;4.39;100.00;98361.00;4964710;28;20086;-63
2020/12/11 10:37:20;;;;;;;7.38;3.80;;;;;;;4.39;100.00;98347.78;4959502;28;20039;-62
2020/12/11 10:39:48;;;;;;;11.88;3.97;;;;;;;4.45;100.00;98356.78;4963067;28;20055;-62
2020/12/11 10:42:15;;;;;;;7.20;3.70;;;;;;;4.43;100.00;98349.06;4968633;28;20046;-63
2020/12/11 10:44:42;;;;;;;6.75;3.65;;;;;;;4.48;100.00;98345.88;4967423;28;20039;-62
2020/12/11 10:47:09;;;;;;;5.28;3.30;;;;;;;4.43;100.00;98346.41;4963433;28;20055;-62
2020/12/11 10:49:36;;;;;;;7.18;3.35;;;;;;;4.52;100.00;98347.13;4970840;28;20358;-62
2020/12/11 10:52:03;;;;;;;7.10;3.95;;;;;;;4.56;100.00;98342.31;4969903;28;20482;-62
2020/12/11 10:54:30;;;;;;;6.45;3.88;;;;;;;4.57;100.00;98336.84;4970991;28;20060;-63
2020/12/11 10:56:57;;;;;;;7.38;4.22;;;;;;;4.57;100.00;98333.38;4967266;28;20051;-62
2020/12/11 10:59:25;;;;;;;5.80;3.63;;;;;;;4.65;100.00;98320.88;4968409;28;20088;-63
2020/12/11 11:01:52;;;;;;;5.93;3.25;;;;;;;4.65;100.00;98320.06;4967527;28;20458;-62
2020/12/11 11:04:19;;;;;;;6.47;4.10;;;;;;;4.63;100.00;98316.75;4970498;28;20054;-65
2020/12/11 11:06:53;;;;;;;7.95;3.47;;;;;;;4.65;100.00;98314.78;4967356;28;20065;-63
2020/12/11 11:09:31;;;;;;;8.70;3.20;;;;;;;4.66;100.00;98311.09;4967191;28;20050;-63
2020/12/11 11:12:06;;;;;;;5.95;3.38;;;;;;;4.63;100.00;98306.19;4970675;28;20054;-62
2020/12/11 11:17:57;;;;;;;7.63;3.75;;;;;;;4.69;100.00;98305.44;4926183;28;20054;-63
2020/12/11 11:20:36;;;;;;;6.18;3.45;;;;;;;4.72;100.00;98298.97;4969940;28;20339;-62
2020/12/11 11:23:11;;;;;;;7.13;3.67;;;;;;;4.71;100.00;98295.50;4966577;28;20051;-62
2020/12/11 11:26:02;;;;;;;8.10;4.43;;;;;;;4.78;100.00;98277.88;4968140;28;20043;-63
2020/12/11 11:28:30;;;;;;;6.93;3.88;;;;;;;4.83;100.00;98282.59;4970163;28;20058;-63
2020/12/11 11:30:57;;;;;;;7.32;3.97;;;;;;;4.73;100.00;98279.44;4969413;28;20039;-62
2020/12/11 11:33:24;;;;;;;6.60;3.90;;;;;;;4.79;100.00;98274.25;4971868;28;20046;-62
2020/12/11 11:35:54;;;;;;;9.32;4.25;;;;;;;4.76;100.00;98258.75;4965613;28;20435;-62
2020/12/11 11:38:21;;;;;;;7.22;3.80;;;;;;;4.79;100.00;98266.31;4966749;28;20058;-62
2020/12/11 11:40:52;;;;;;;9.48;4.82;;;;;;;4.70;100.00;98258.69;4968543;28;20056;-61
2020/12/11 11:43:24;;;;;;;9.15;4.65;;;;;;;4.71;100.00;98261.13;4969983;28;20343;-63